Cammack Village, Arkansas
Current Conditions -  °F | °C
As of 1:53 AM on Monday 24 Nov 2014 (Local Time) from KLIT Reporting Station
Overcast Overcast  
Wind Chill: 54°   Ceiling: 3200
Heat Index: 54°   Visibility: 10mi
Dew Point: 43°   Wind: 26mph
Humidity: 66%   Direction: 270°W
Pressure: 29.57"   Gusts: 35mph
Location:  34.7738°N, 92.3401°W
Report Text: KLIT 240753Z 27023G30KT 10SM OVC032 12/06 A2957 RMK AO2 PK WND 26031/0727 PRESRR SLP014 BINOVC T01220061
Loading
Personal Weather Stations






























Interactive Weather Map New forecast layout! Learn more

10-Day Weather Forecast

Advertisements
Track Severe Weather on mobile